KSTL Airport Information

Runway Information
Runway 06 Length 7602 ft width 150 ft
Elevation 551 ft Threshold 0 ft Heading 63
Runway 24 Length 7602 ft Width 150 ft
Elevation 534 ft Threshold 0 ft Heading 243
Runway 11 Length 9001 ft width 150 ft
Elevation 618 ft Threshold 0 ft Heading 122
Runway 29 Length 9001 ft Width 150 ft
Elevation 556 ft Threshold 0 ft Heading 302
Runway 12L Length 9003 ft width 150 ft
Elevation 528 ft Threshold 0 ft Heading 122
Runway 30R Length 9003 ft Width 150 ft
Elevation 605 ft Threshold 0 ft Heading 302
Runway 12R Length 11019 ft width 200 ft
Elevation 540 ft Threshold 467 ft Heading 122
Runway 30L Length 11019 ft Width 200 ft
Elevation 583 ft Threshold 201 ft Heading 302
Airport Frequencies
Type APP Name ST LOUIS A Frequency 28.91 MHZ
Type APP Name ST LOUIS A Frequency 120.05 MHZ
Type ATIS Name ATIS Frequency 125.025 MHZ
Type CLD Name CLNC DEL Frequency 119.5 MHZ
Type DEP Name ST LOUIS D Frequency 119.15 MHZ
Type GND Name ST LOUIS G Frequency 22.712 MHZ
Type GND Name ST LOUIS G Frequency 118.925 MHZ
Type OPS Name ANG OPS Frequency 29.79 MHZ
Type RDO Name ST LOUIS R Frequency 122.05 MHZ
Type TWR Name ST LOUIS T Frequency 28.46 MHZ
Type TWR Name ST LOUIS T Frequency 118.5 MHZ
Type UNIC Name UNICOM Frequency 122.95 MHZ
Airport Navaids
Type VOR-DME Name Cardinal Frequency 116450 KHZ
Type NDB Name Zumay Frequency 404 KHZ
Type VORTAC Name St Louis Frequency 117400 KHZ
Airport Weather Information & NOTAM
ADDS - METARS form results

(1637 UTC 20 August 2018)
 
METAR text: KSTL 201630Z 22013KT 10SM SCT028 27/19 A2982 RMK AO2 T02670194
Conditions at: KSTL (ST. LOUIS , MO, US) observed 1630 UTC 20 August 2018
Temperature: 26.7°C (80°F)
Dewpoint: 19.4°C (67°F) [RH = 64%]
Pressure (altimeter): 29.82 inches Hg (1009.9 mb)
Winds: from the SW (220 degrees) at 15 MPH (13 knots; 6.8 m/s)
Visibility: 10 or more miles (16+ km)
Ceiling: at least 12,000 feet AGL
Clouds: scattered clouds at 2800 feet AGL
Weather: no significant weather observed at this time

METAR text: KSTL 201551Z 23013G20KT 10SM BKN026 24/18 A2983 RMK AO2 SLP089 T02440183
Conditions at: KSTL (ST. LOUIS , MO, US) observed 1551 UTC 20 August 2018
Temperature: 24.4°C (76°F)
Dewpoint: 18.3°C (65°F) [RH = 69%]
Pressure (altimeter): 29.83 inches Hg (1010.2 mb)
[Sea-level pressure: 1008.9 mb]
Winds: from the SW (230 degrees) at 15 MPH (13 knots; 6.8 m/s)
gusting to 23 MPH (20 knots; 10.4 m/s)
Visibility: 10 or more miles (16+ km)
Ceiling: 2600 feet AGL
Clouds: broken clouds at 2600 feet AGL
Weather: no significant weather observed at this time